Time;durP1;ratioP1;P1;durP2;ratioP2;P2;SDS_P1;SDS_P2;PMS_P1;PMS_P2;Temp;Humidity;BMP_temperature;BMP_pressure;BME280_temperature;BME280_humidity;BME280_pressure;Samples;Min_cycle;Max_cycle;Signal;HPM_P1;HPM_P2
2021/03/29 00:01:29;;;;;;;;;;;19.20;53.10;;;;;;5003995;28;20633;-63
2021/03/29 00:03:55;;;;;;;;;;;19.30;53.10;;;;;;5004393;28;19921;-62
2021/03/29 00:06:21;;;;;;;;;;;19.30;53.00;;;;;;5002326;28;20386;-63
2021/03/29 00:08:46;;;;;;;;;;;19.30;52.90;;;;;;5003290;28;19925;-63
2021/03/29 00:11:12;;;;;;;;;;;19.30;52.90;;;;;;5002852;28;19925;-63
2021/03/29 00:13:37;;;;;;;;;;;19.30;52.80;;;;;;5002950;28;19922;-63
2021/03/29 00:16:03;;;;;;;;;;;19.30;53.40;;;;;;5002863;28;19913;-63
2021/03/29 00:18:28;;;;;;;;;;;19.30;52.70;;;;;;5004595;28;19946;-62
2021/03/29 00:20:55;;;;;;;;;;;19.30;52.70;;;;;;5002383;28;19917;-62
2021/03/29 00:23:20;;;;;;;;;;;19.30;52.70;;;;;;5004601;28;19917;-63
2021/03/29 00:25:46;;;;;;;;;;;19.30;52.60;;;;;;5004556;28;19924;-62
2021/03/29 00:28:11;;;;;;;;;;;19.30;52.50;;;;;;4985974;28;19920;-62
2021/03/29 00:30:41;;;;;;;;;;;19.30;52.50;;;;;;5003811;28;20145;-62
2021/03/29 00:33:07;;;;;;;;;;;19.30;52.40;;;;;;5006284;28;20395;-62
2021/03/29 00:35:35;;;;;;;;;;;19.30;52.40;;;;;;5036084;23;19972;-67
2021/03/29 00:38:00;;;;;;;;;;;19.30;52.40;;;;;;5024097;28;19913;-67
2021/03/29 00:40:26;;;;;;;;;;;19.30;52.30;;;;;;5025494;28;20627;-66
2021/03/29 00:43:11;;;;;;;;;;;19.30;52.30;;;;;;5026318;28;19927;-66
2021/03/29 00:45:37;;;;;;;;;;;19.30;52.30;;;;;;5027139;28;19917;-66
2021/03/29 00:48:02;;;;;;;;;;;19.30;52.30;;;;;;5025597;28;19920;-67
2021/03/29 00:50:41;;;;;;;;;;;19.30;52.20;;;;;;5026040;28;19959;-67
2021/03/29 00:53:07;;;;;;;;;;;19.30;52.20;;;;;;5027248;28;20008;-66
2021/03/29 00:55:32;;;;;;;;;;;19.30;52.20;;;;;;5025533;28;19920;-67
2021/03/29 00:57:58;;;;;;;;;;;19.20;52.10;;;;;;5025675;28;19917;-66
2021/03/29 01:00:25;;;;;;;;;;;19.30;52.20;;;;;;5025804;28;20542;-66
2021/03/29 01:02:51;;;;;;;;;;;19.30;52.10;;;;;;5025809;28;21452;-67
2021/03/29 01:05:17;;;;;;;;;;;19.30;52.10;;;;;;5026431;28;19954;-66
2021/03/29 01:07:43;;;;;;;;;;;19.30;52.10;;;;;;5026197;28;19963;-66
2021/03/29 01:10:08;;;;;;;;;;;19.30;52.00;;;;;;5025421;28;19917;-67
2021/03/29 01:12:34;;;;;;;;;;;19.30;52.00;;;;;;5024871;28;20364;-66
2021/03/29 01:14:59;;;;;;;;;;;19.30;52.00;;;;;;5026152;28;19913;-67
2021/03/29 01:17:27;;;;;;;;;;;19.20;51.90;;;;;;5026174;28;19920;-66
2021/03/29 01:20:01;;;;;;;;;;;19.20;51.90;;;;;;5025808;28;19967;-66
2021/03/29 01:22:30;;;;;;;;;;;19.20;51.90;;;;;;5026516;28;19963;-66
2021/03/29 01:25:17;;;;;;;;;;;19.20;51.90;;;;;;5025039;28;20395;-66
2021/03/29 01:27:43;;;;;;;;;;;19.20;51.90;;;;;;5024356;28;19917;-66
2021/03/29 01:30:09;;;;;;;;;;;19.20;51.90;;;;;;5025178;28;20067;-66
2021/03/29 01:32:35;;;;;;;;;;;19.20;51.90;;;;;;5026217;28;19924;-66
2021/03/29 01:35:01;;;;;;;;;;;19.20;51.90;;;;;;5025852;28;19913;-66
2021/03/29 01:37:26;;;;;;;;;;;19.20;51.90;;;;;;5023993;28;19924;-66
2021/03/29 01:39:52;;;;;;;;;;;19.20;51.80;;;;;;5025696;28;19924;-66
2021/03/29 01:42:17;;;;;;;;;;;19.10;51.70;;;;;;5026535;28;19967;-66
2021/03/29 01:44:43;;;;;;;;;;;19.20;51.80;;;;;;5026120;28;19924;-66
2021/03/29 01:47:08;;;;;;;;;;;19.20;51.80;;;;;;5023802;28;19913;-66
2021/03/29 01:49:34;;;;;;;;;;;19.20;51.80;;;;;;5026652;28;19917;-66
2021/03/29 01:51:59;;;;;;;;;;;19.20;51.80;;;;;;5024529;28;20582;-66
2021/03/29 01:54:25;;;;;;;;;;;19.20;51.80;;;;;;5025021;28;19921;-66
2021/03/29 01:56:50;;;;;;;;;;;19.10;51.70;;;;;;5025678;28;19913;-66
2021/03/29 01:59:15;;;;;;;;;;;19.20;51.80;;;;;;5026378;28;19924;-67
2021/03/29 02:01:41;;;;;;;;;;;19.20;51.80;;;;;;5025409;28;20411;-67
2021/03/29 02:04:06;;;;;;;;;;;19.10;51.80;;;;;;5026276;28;19917;-67
2021/03/29 02:06:32;;;;;;;;;;;19.10;51.70;;;;;;5024483;28;19989;-66
2021/03/29 02:08:57;;;;;;;;;;;19.10;51.70;;;;;;5024801;28;19925;-66
2021/03/29 02:11:23;;;;;;;;;;;19.10;51.70;;;;;;5024527;28;20387;-66
2021/03/29 02:13:49;;;;;;;;;;;19.10;51.70;;;;;;5008081;28;20040;-66
2021/03/29 02:16:14;;;;;;;;;;;19.10;51.70;;;;;;5024318;28;19917;-66
2021/03/29 02:18:53;;;;;;;;;;;19.10;51.70;;;;;;5025763;28;19996;-67
2021/03/29 02:21:19;;;;;;;;;;;19.10;51.70;;;;;;5025774;28;19994;-66
2021/03/29 02:23:48;;;;;;;;;;;19.10;51.70;;;;;;5026589;28;20055;-67
2021/03/29 02:26:13;;;;;;;;;;;19.10;51.70;;;;;;5024529;28;19917;-66
2021/03/29 02:28:39;;;;;;;;;;;19.10;51.70;;;;;;5024332;28;20375;-66
2021/03/29 02:31:04;;;;;;;;;;;19.10;51.70;;;;;;5024944;28;19921;-67
2021/03/29 02:33:30;;;;;;;;;;;19.10;51.70;;;;;;5023826;28;19913;-66
2021/03/29 02:35:55;;;;;;;;;;;19.10;51.70;;;;;;5023799;28;20406;-66
2021/03/29 02:38:21;;;;;;;;;;;19.10;51.70;;;;;;5023809;28;20047;-66
2021/03/29 02:40:49;;;;;;;;;;;19.10;51.70;;;;;;5025340;28;20419;-66
2021/03/29 02:43:15;;;;;;;;;;;19.00;51.60;;;;;;5025115;28;19913;-66
2021/03/29 02:45:42;;;;;;;;;;;19.00;51.60;;;;;;5023893;28;19928;-66
2021/03/29 02:48:09;;;;;;;;;;;19.00;51.70;;;;;;5024685;28;19920;-67
2021/03/29 02:50:35;;;;;;;;;;;19.00;51.70;;;;;;5025370;28;20630;-66
2021/03/29 02:53:01;;;;;;;;;;;19.00;51.70;;;;;;5023221;28;20002;-66
2021/03/29 02:55:27;;;;;;;;;;;19.00;51.60;;;;;;5023775;28;19923;-66
2021/03/29 02:57:53;;;;;;;;;;;19.00;51.60;;;;;;5024663;28;19944;-66
2021/03/29 03:00:19;;;;;;;;;;;19.00;51.60;;;;;;5024657;28;19919;-66
2021/03/29 03:02:44;;;;;;;;;;;19.00;51.70;;;;;;5022128;28;20555;-66
2021/03/29 03:05:10;;;;;;;;;;;19.00;51.60;;;;;;5024612;28;19953;-66
2021/03/29 03:07:36;;;;;;;;;;;19.00;51.60;;;;;;5023856;28;19944;-66
2021/03/29 03:10:03;;;;;;;;;;;19.00;51.60;;;;;;5025089;28;19951;-66
2021/03/29 03:12:28;;;;;;;;;;;19.00;51.60;;;;;;5024331;28;19971;-66
2021/03/29 03:14:54;;;;;;;;;;;19.00;51.90;;;;;;5024140;28;20368;-66
2021/03/29 03:17:19;;;;;;;;;;;19.00;51.60;;;;;;5022335;28;19968;-66
2021/03/29 03:19:45;;;;;;;;;;;19.00;51.60;;;;;;5024715;28;19947;-67
2021/03/29 03:22:13;;;;;;;;;;;18.90;51.60;;;;;;5023878;28;19920;-66
2021/03/29 03:24:39;;;;;;;;;;;18.90;51.60;;;;;;5024492;28;19950;-67
2021/03/29 03:27:07;;;;;;;;;;;19.00;51.60;;;;;;5024077;28;20047;-66
2021/03/29 03:29:37;;;;;;;;;;;19.00;51.60;;;;;;5013297;28;20070;-66
2021/03/29 03:32:02;;;;;;;;;;;18.90;51.80;;;;;;5022016;28;20010;-66
2021/03/29 03:34:28;;;;;;;;;;;18.90;51.70;;;;;;5022815;28;20391;-66
2021/03/29 03:36:53;;;;;;;;;;;18.90;51.60;;;;;;5021711;28;19924;-67
2021/03/29 03:39:19;;;;;;;;;;;18.90;51.60;;;;;;5022677;28;19920;-66
2021/03/29 03:41:44;;;;;;;;;;;18.90;51.60;;;;;;5022162;28;20024;-66
2021/03/29 03:44:10;;;;;;;;;;;18.90;51.60;;;;;;5022691;28;19917;-67
2021/03/29 03:46:36;;;;;;;;;;;18.90;51.60;;;;;;5022615;28;20546;-66
2021/03/29 03:49:06;;;;;;;;;;;18.90;51.50;;;;;;5024015;28;19980;-66
2021/03/29 03:51:31;;;;;;;;;;;18.90;51.50;;;;;;5021738;28;19944;-66
2021/03/29 03:53:56;;;;;;;;;;;18.90;51.60;;;;;;5023777;28;20379;-66
2021/03/29 03:56:22;;;;;;;;;;;18.90;51.50;;;;;;5022866;28;19924;-66
2021/03/29 03:58:48;;;;;;;;;;;18.90;51.50;;;;;;5021821;28;19913;-66
2021/03/29 04:01:13;;;;;;;;;;;18.90;51.50;;;;;;5023601;28;21064;-66
2021/03/29 04:03:39;;;;;;;;;;;18.90;51.50;;;;;;5023282;28;19935;-66
2021/03/29 04:06:05;;;;;;;;;;;18.90;51.50;;;;;;5024144;28;19970;-67
2021/03/29 04:08:31;;;;;;;;;;;18.80;51.50;;;;;;5026984;28;20023;-66
2021/03/29 04:10:58;;;;;;;;;;;18.80;51.50;;;;;;5026820;28;19996;-66
2021/03/29 04:13:30;;;;;;;;;;;18.80;51.50;;;;;;5027056;28;19913;-66
2021/03/29 04:15:59;;;;;;;;;;;18.80;51.40;;;;;;5028183;28;20051;-66
2021/03/29 04:18:25;;;;;;;;;;;18.90;51.50;;;;;;5025868;28;19913;-66
2021/03/29 04:20:50;;;;;;;;;;;18.80;51.40;;;;;;5027715;28;19913;-66
2021/03/29 04:23:16;;;;;;;;;;;18.80;51.40;;;;;;5027432;28;19917;-66
2021/03/29 04:25:42;;;;;;;;;;;18.80;51.40;;;;;;5027703;28;19913;-66
2021/03/29 04:28:07;;;;;;;;;;;18.80;51.40;;;;;;5026757;28;19913;-66
2021/03/29 04:30:33;;;;;;;;;;;18.80;51.40;;;;;;5027507;28;19921;-64
2021/03/29 04:32:58;;;;;;;;;;;18.80;51.40;;;;;;5025900;28;19921;-67
2021/03/29 04:35:24;;;;;;;;;;;18.80;51.40;;;;;;5027429;28;19917;-67
2021/03/29 04:37:50;;;;;;;;;;;18.80;51.40;;;;;;5026598;28;20411;-67
2021/03/29 04:40:16;;;;;;;;;;;18.80;51.40;;;;;;5027839;28;19983;-66
2021/03/29 04:42:42;;;;;;;;;;;18.80;51.40;;;;;;5026720;28;20445;-67
2021/03/29 04:45:07;;;;;;;;;;;18.80;51.50;;;;;;5027924;28;19913;-66
2021/03/29 04:47:33;;;;;;;;;;;18.80;51.60;;;;;;5026878;28;20572;-67
2021/03/29 04:49:58;;;;;;;;;;;18.80;51.70;;;;;;5026830;28;19971;-66
2021/03/29 04:52:24;;;;;;;;;;;18.80;51.70;;;;;;5026989;28;19920;-65
2021/03/29 04:54:49;;;;;;;;;;;18.80;51.80;;;;;;5027078;28;19913;-66
2021/03/29 04:57:14;;;;;;;;;;;18.80;52.60;;;;;;5026577;28;19913;-65
2021/03/29 04:59:40;;;;;;;;;;;18.80;52.10;;;;;;5026753;28;19947;-65
2021/03/29 05:02:05;;;;;;;;;;;18.80;52.20;;;;;;5028097;28;20437;-65
2021/03/29 05:04:31;;;;;;;;;;;18.80;52.30;;;;;;5027875;28;19913;-65
2021/03/29 05:06:56;;;;;;;;;;;18.80;52.40;;;;;;5026798;28;19916;-65
2021/03/29 05:09:22;;;;;;;;;;;18.80;52.50;;;;;;5027208;28;19970;-64
2021/03/29 05:11:51;;;;;;;;;;;18.80;52.70;;;;;;5026552;28;20317;-65
2021/03/29 05:14:16;;;;;;;;;;;18.80;52.80;;;;;;5026817;28;20001;-65
2021/03/29 05:16:42;;;;;;;;;;;18.80;53.00;;;;;;5026287;28;20384;-65
2021/03/29 05:19:08;;;;;;;;;;;18.80;53.10;;;;;;5025939;28;20384;-66
2021/03/29 05:21:33;;;;;;;;;;;18.80;53.00;;;;;;5026066;28;20563;-66
2021/03/29 05:23:59;;;;;;;;;;;18.80;53.00;;;;;;5026602;28;19913;-66
2021/03/29 05:26:24;;;;;;;;;;;18.80;52.80;;;;;;5026269;28;19913;-65
2021/03/29 05:28:50;;;;;;;;;;;18.70;52.60;;;;;;5026377;28;19951;-65
2021/03/29 05:31:15;;;;;;;;;;;18.80;52.60;;;;;;5025937;28;19917;-64
2021/03/29 05:33:40;;;;;;;;;;;18.70;52.40;;;;;;5027001;28;20548;-67
2021/03/29 05:36:11;;;;;;;;;;;18.70;52.40;;;;;;5026792;28;19959;-66
2021/03/29 05:38:37;;;;;;;;;;;18.70;52.30;;;;;;5024761;28;19920;-65
2021/03/29 05:41:02;;;;;;;;;;;18.70;52.20;;;;;;5026103;28;19967;-65
2021/03/29 05:43:29;;;;;;;;;;;18.70;52.10;;;;;;5025863;28;19920;-65
2021/03/29 05:45:54;;;;;;;;;;;18.70;52.00;;;;;;5016559;28;19913;-64
2021/03/29 05:48:19;;;;;;;;;;;18.70;52.00;;;;;;5026481;28;19913;-63
2021/03/29 05:50:45;;;;;;;;;;;18.70;52.00;;;;;;4988075;28;20395;-63
2021/03/29 05:53:10;;;;;;;;;;;18.70;51.90;;;;;;5022422;28;19927;-63
2021/03/29 05:55:39;;;;;;;;;;;18.70;51.80;;;;;;5025895;28;19921;-63
2021/03/29 05:58:30;;;;;;;;;;;18.70;52.30;;;;;;5025914;28;19959;-63
2021/03/29 06:00:50;;;;;;;;;;;18.70;51.70;;;;;;5019613;28;20406;-63
2021/03/29 06:03:22;;;;;;;;;;;18.70;51.70;;;;;;5026854;28;19949;-63
2021/03/29 06:05:48;;;;;;;;;;;18.70;51.70;;;;;;5026036;28;19913;-64
2021/03/29 06:08:14;;;;;;;;;;;18.70;51.60;;;;;;5025665;28;19931;-63
2021/03/29 06:10:39;;;;;;;;;;;18.70;51.60;;;;;;5025061;28;20331;-63
2021/03/29 06:13:17;;;;;;;;;;;18.70;51.60;;;;;;5024541;28;19951;-62
2021/03/29 06:15:43;;;;;;;;;;;18.70;51.70;;;;;;5024705;28;20510;-65
2021/03/29 06:18:15;;;;;;;;;;;18.70;52.50;;;;;;5024655;28;19978;-65
2021/03/29 06:20:55;;;;;;;;;;;18.70;52.70;;;;;;5021984;28;19924;-65
2021/03/29 06:23:21;;;;;;;;;;;18.80;52.80;;;;;;5023676;28;19913;-66
2021/03/29 06:25:46;;;;;;;;;;;18.70;52.90;;;;;;5023389;28;19960;-66
2021/03/29 06:28:22;;;;;;;;;;;18.70;53.10;;;;;;5024073;28;19920;-66
2021/03/29 06:30:47;;;;;;;;;;;18.80;53.30;;;;;;5023969;28;19913;-65
2021/03/29 06:33:14;;;;;;;;;;;18.70;53.30;;;;;;5024142;28;19917;-64
2021/03/29 06:35:43;;;;;;;;;;;18.70;53.40;;;;;;5022627;28;20554;-64
2021/03/29 06:38:14;;;;;;;;;;;18.70;53.40;;;;;;5024306;28;19912;-64
2021/03/29 06:40:41;;;;;;;;;;;18.70;53.30;;;;;;5017464;28;19996;-67
2021/03/29 06:43:15;;;;;;;;;;;18.70;53.30;;;;;;5018927;28;19919;-64
2021/03/29 06:45:41;;;;;;;;;;;18.70;53.30;;;;;;5024243;28;19919;-63
2021/03/29 06:48:15;;;;;;;;;;;18.80;53.20;;;;;;5023015;28;19913;-64
2021/03/29 06:50:41;;;;;;;;;;;18.80;53.10;;;;;;5016835;28;19924;-64
2021/03/29 06:53:06;;;;;;;;;;;18.70;53.00;;;;;;5024855;28;19913;-64
2021/03/29 06:55:32;;;;;;;;;;;18.70;52.90;;;;;;5024407;28;19976;-64
2021/03/29 06:57:58;;;;;;;;;;;18.70;52.80;;;;;;5023822;28;19936;-65
2021/03/29 07:00:33;;;;;;;;;;;18.70;52.80;;;;;;5016876;28;20319;-64
2021/03/29 07:02:59;;;;;;;;;;;18.70;52.80;;;;;;5023751;28;19912;-64
2021/03/29 07:05:25;;;;;;;;;;;18.70;52.70;;;;;;5024420;28;19913;-64
2021/03/29 07:07:51;;;;;;;;;;;18.70;52.70;;;;;;5022898;28;19920;-65
2021/03/29 07:10:16;;;;;;;;;;;18.70;52.60;;;;;;5023325;28;19917;-63
2021/03/29 07:12:41;;;;;;;;;;;18.70;52.70;;;;;;5023638;28;20338;-64
2021/03/29 07:15:08;;;;;;;;;;;18.70;52.70;;;;;;5024072;28;19983;-64
2021/03/29 07:17:36;;;;;;;;;;;18.70;52.80;;;;;;5023611;28;20139;-64
2021/03/29 07:20:02;;;;;;;;;;;18.70;52.80;;;;;;5024065;28;19913;-64
2021/03/29 07:22:28;;;;;;;;;;;18.70;52.90;;;;;;5023246;28;20579;-64
2021/03/29 07:24:54;;;;;;;;;;;18.70;52.80;;;;;;5022513;28;19913;-64
2021/03/29 07:27:20;;;;;;;;;;;18.60;53.10;;;;;;5014878;28;19921;-64
2021/03/29 07:29:45;;;;;;;;;;;18.70;53.20;;;;;;5024125;28;19960;-65
2021/03/29 07:32:30;;;;;;;;;;;18.70;53.20;;;;;;5023844;28;19933;-64
2021/03/29 07:34:55;;;;;;;;;;;18.70;53.20;;;;;;5023780;28;19920;-67
2021/03/29 07:37:40;;;;;;;;;;;18.70;53.20;;;;;;5023742;28;19924;-65
2021/03/29 07:40:07;;;;;;;;;;;18.70;53.20;;;;;;5021693;28;20280;-64
2021/03/29 07:42:33;;;;;;;;;;;18.70;53.20;;;;;;5023581;28;19924;-64
2021/03/29 07:45:00;;;;;;;;;;;18.70;53.20;;;;;;5024599;28;19913;-64
2021/03/29 07:47:37;;;;;;;;;;;18.70;53.20;;;;;;5023232;28;20020;-64
2021/03/29 07:50:03;;;;;;;;;;;18.70;53.00;;;;;;5017597;28;19924;-64
2021/03/29 07:52:28;;;;;;;;;;;18.70;52.80;;;;;;5023067;28;20731;-64
2021/03/29 07:54:54;;;;;;;;;;;18.70;52.70;;;;;;5023474;28;19913;-64
2021/03/29 07:57:49;;;;;;;;;;;18.70;52.70;;;;;;5023459;28;20396;-64
2021/03/29 08:00:23;;;;;;;;;;;18.70;52.60;;;;;;5022163;28;19955;-64
2021/03/29 08:02:49;;;;;;;;;;;18.70;52.60;;;;;;5016675;28;19956;-64
2021/03/29 08:05:15;;;;;;;;;;;18.70;52.40;;;;;;5023542;28;20006;-64
2021/03/29 08:07:41;;;;;;;;;;;18.60;52.50;;;;;;5022519;28;20380;-64
2021/03/29 08:10:11;;;;;;;;;;;18.60;52.20;;;;;;5023339;28;19920;-64
2021/03/29 08:12:36;;;;;;;;;;;18.70;52.40;;;;;;5022969;28;19921;-64
2021/03/29 08:15:02;;;;;;;;;;;18.70;52.20;;;;;;5021909;28;19955;-64
2021/03/29 08:17:45;;;;;;;;;;;18.70;52.40;;;;;;5022621;28;20516;-64
2021/03/29 08:20:12;;;;;;;;;;;18.60;52.40;;;;;;5023559;28;19961;-65
2021/03/29 08:22:37;;;;;;;;;;;18.70;52.30;;;;;;5022809;28;20782;-64
2021/03/29 08:25:03;;;;;;;;;;;18.70;52.20;;;;;;5022224;28;19921;-64
2021/03/29 08:27:30;;;;;;;;;;;18.70;52.20;;;;;;5022218;28;20454;-64
2021/03/29 08:29:57;;;;;;;;;;;18.70;52.30;;;;;;5023532;28;20141;-64
2021/03/29 08:32:32;;;;;;;;;;;18.70;52.80;;;;;;5021390;28;19956;-64
2021/03/29 08:34:58;;;;;;;;;;;18.70;52.30;;;;;;5022947;28;19956;-64
2021/03/29 08:37:31;;;;;;;;;;;18.70;52.20;;;;;;5021313;28;19917;-64
2021/03/29 08:39:57;;;;;;;;;;;18.70;52.20;;;;;;5017304;28;19913;-64
2021/03/29 08:42:24;;;;;;;;;;;18.70;52.30;;;;;;5022384;28;20378;-63
2021/03/29 08:44:50;;;;;;;;;;;18.70;52.30;;;;;;5023957;28;20402;-64
2021/03/29 08:47:16;;;;;;;;;;;18.70;52.30;;;;;;5022844;28;19918;-66
2021/03/29 08:49:42;;;;;;;;;;;18.70;52.90;;;;;;5022579;28;20401;-63
2021/03/29 08:52:08;;;;;;;;;;;18.70;52.20;;;;;;5022706;28;19917;-64
2021/03/29 08:54:33;;;;;;;;;;;18.70;52.40;;;;;;5025946;28;19956;-65
2021/03/29 08:57:03;;;;;;;;;;;18.70;52.30;;;;;;5026136;28;19952;-64
2021/03/29 08:59:28;;;;;;;;;;;18.70;52.20;;;;;;5026295;28;19913;-64
2021/03/29 09:01:54;;;;;;;;;;;18.70;52.20;;;;;;5026898;28;19917;-64
2021/03/29 09:04:19;;;;;;;;;;;18.70;52.30;;;;;;5025510;28;20280;-63
2021/03/29 09:06:45;;;;;;;;;;;18.70;52.20;;;;;;5026639;28;20135;-65
2021/03/29 09:09:11;;;;;;;;;;;18.70;52.20;;;;;;5025137;28;20411;-65
2021/03/29 09:11:40;;;;;;;;;;;18.70;52.20;;;;;;5026148;28;20419;-64
2021/03/29 09:14:05;;;;;;;;;;;18.70;52.30;;;;;;5026715;28;19993;-64
2021/03/29 09:16:31;;;;;;;;;;;18.70;52.20;;;;;;5024545;28;20398;-64
2021/03/29 09:19:09;;;;;;;;;;;18.70;52.30;;;;;;5026372;28;19920;-65
2021/03/29 09:21:34;;;;;;;;;;;18.70;52.30;;;;;;5026086;28;19917;-64
2021/03/29 09:23:59;;;;;;;;;;;18.70;52.50;;;;;;5026465;28;19917;-64
2021/03/29 09:26:25;;;;;;;;;;;18.70;52.50;;;;;;5026057;28;19913;-64
2021/03/29 09:28:54;;;;;;;;;;;18.70;52.60;;;;;;5026734;28;20423;-65
2021/03/29 09:31:21;;;;;;;;;;;18.70;52.70;;;;;;5024918;28;19925;-64
2021/03/29 09:33:47;;;;;;;;;;;18.70;52.70;;;;;;5024420;28;19921;-65
2021/03/29 09:36:14;;;;;;;;;;;18.70;52.80;;;;;;5025865;28;19917;-64
2021/03/29 09:38:40;;;;;;;;;;;18.70;52.90;;;;;;5024847;28;19998;-65
2021/03/29 09:41:15;;;;;;;;;;;18.70;52.90;;;;;;5025853;28;19913;-67
2021/03/29 09:43:44;;;;;;;;;;;18.70;52.90;;;;;;5025691;28;19928;-65
2021/03/29 09:46:09;;;;;;;;;;;18.70;52.90;;;;;;5026060;28;19917;-65
2021/03/29 09:48:35;;;;;;;;;;;18.70;53.00;;;;;;5024060;28;19974;-65
2021/03/29 09:51:00;;;;;;;;;;;18.70;53.10;;;;;;5025248;28;19920;-64
2021/03/29 09:53:32;;;;;;;;;;;18.70;53.10;;;;;;5025102;28;20399;-65
2021/03/29 09:55:58;;;;;;;;;;;18.70;53.20;;;;;;5018912;28;19969;-64
2021/03/29 09:58:26;;;;;;;;;;;18.70;53.30;;;;;;5024848;28;19937;-65
2021/03/29 10:00:52;;;;;;;;;;;18.70;53.30;;;;;;5025866;28;19913;-64
2021/03/29 10:03:18;;;;;;;;;;;18.70;53.40;;;;;;5025764;28;19917;-65
2021/03/29 10:05:45;;;;;;;;;;;18.70;53.30;;;;;;5024004;28;20703;-65
2021/03/29 10:08:10;;;;;;;;;;;18.70;53.30;;;;;;5023225;28;19925;-65
2021/03/29 10:10:36;;;;;;;;;;;18.70;53.50;;;;;;5025011;28;20024;-66
2021/03/29 10:13:05;;;;;;;;;;;18.70;53.40;;;;;;5023567;28;19917;-65
2021/03/29 10:15:31;;;;;;;;;;;18.70;53.30;;;;;;5024916;28;19940;-65
2021/03/29 10:18:06;;;;;;;;;;;18.70;53.50;;;;;;5024970;28;20383;-65
2021/03/29 10:20:33;;;;;;;;;;;18.70;53.40;;;;;;5025267;28;19920;-66
2021/03/29 10:23:18;;;;;;;;;;;18.70;53.30;;;;;;5027062;28;19928;-65
2021/03/29 10:25:44;;;;;;;;;;;18.70;53.30;;;;;;5028718;28;20008;-64
2021/03/29 10:28:16;;;;;;;;;;;18.70;53.50;;;;;;5025321;28;19913;-64
2021/03/29 10:30:41;;;;;;;;;;;18.70;53.70;;;;;;5025513;28;19923;-64
2021/03/29 10:33:08;;;;;;;;;;;18.70;53.70;;;;;;5024420;28;19920;-64
2021/03/29 10:35:33;;;;;;;;;;;18.70;53.70;;;;;;5024146;28;19921;-64
2021/03/29 10:38:01;;;;;;;;;;;18.70;53.70;;;;;;5024657;28;20448;-65
2021/03/29 10:40:26;;;;;;;;;;;18.70;53.90;;;;;;5024762;28;20031;-64
2021/03/29 10:42:52;;;;;;;;;;;18.70;53.70;;;;;;5024882;28;19929;-65
2021/03/29 10:45:18;;;;;;;;;;;18.70;53.90;;;;;;5020600;28;19924;-67
2021/03/29 10:47:44;;;;;;;;;;;18.80;54.00;;;;;;5024009;28;20373;-66
2021/03/29 10:50:10;;;;;;;;;;;18.80;54.00;;;;;;5023026;28;20661;-66
2021/03/29 10:52:36;;;;;;;;;;;18.70;53.90;;;;;;5020435;28;20666;-67
2021/03/29 10:55:01;;;;;;;;;;;18.80;54.00;;;;;;5024200;28;19917;-66
2021/03/29 10:57:26;;;;;;;;;;;18.70;53.90;;;;;;5023527;28;20027;-67
2021/03/29 10:59:52;;;;;;;;;;;18.70;53.90;;;;;;5024076;28;19921;-67
2021/03/29 11:02:17;;;;;;;;;;;18.70;54.10;;;;;;5024848;28;20338;-67
2021/03/29 11:04:43;;;;;;;;;;;18.70;54.00;;;;;;5023688;28;19913;-66
2021/03/29 11:07:08;;;;;;;;;;;18.80;54.30;;;;;;5023273;28;19919;-65
2021/03/29 11:09:34;;;;;;;;;;;18.80;54.20;;;;;;5024135;28;19917;-67
2021/03/29 11:11:59;;;;;;;;;;;18.80;54.20;;;;;;5023301;28;19925;-67
2021/03/29 11:14:25;;;;;;;;;;;18.80;54.20;;;;;;5023583;28;20423;-66
2021/03/29 11:16:52;;;;;;;;;;;18.80;54.20;;;;;;5022242;28;19920;-67
2021/03/29 11:19:18;;;;;;;;;;;18.80;54.20;;;;;;5023114;28;19963;-67
2021/03/29 11:21:43;;;;;;;;;;;18.80;54.10;;;;;;5024135;28;20346;-66
2021/03/29 11:24:09;;;;;;;;;;;18.80;54.10;;;;;;5024078;28;20571;-66
2021/03/29 11:26:35;;;;;;;;;;;18.80;54.10;;;;;;5023257;28;20402;-66
2021/03/29 11:29:00;;;;;;;;;;;18.80;54.10;;;;;;5023649;28;19917;-67
2021/03/29 11:31:26;;;;;;;;;;;18.80;54.20;;;;;;5023252;28;19982;-65
2021/03/29 11:33:52;;;;;;;;;;;18.80;54.20;;;;;;5024218;28;19913;-66
2021/03/29 11:36:18;;;;;;;;;;;18.80;54.20;;;;;;5023469;28;20055;-65
2021/03/29 11:38:43;;;;;;;;;;;18.80;54.20;;;;;;5023718;28;19920;-67
2021/03/29 11:41:08;;;;;;;;;;;18.80;54.10;;;;;;5023879;28;19913;-66
2021/03/29 11:43:34;;;;;;;;;;;18.80;54.20;;;;;;5023123;28;19913;-65
2021/03/29 11:45:59;;;;;;;;;;;18.80;54.30;;;;;;5023963;28;19966;-66
2021/03/29 11:48:25;;;;;;;;;;;18.80;54.10;;;;;;5023100;28;20404;-66
2021/03/29 11:50:50;;;;;;;;;;;18.80;54.30;;;;;;5023674;28;19963;-67
2021/03/29 11:53:18;;;;;;;;;;;18.70;54.20;;;;;;5023261;28;19917;-67
2021/03/29 11:55:43;;;;;;;;;;;18.80;54.20;;;;;;5023164;28;19917;-67
2021/03/29 11:58:09;;;;;;;;;;;18.80;54.50;;;;;;5022719;28;19921;-65
2021/03/29 12:01:12;;;;;;;;;;;18.80;54.50;;;;;;5023542;28;19917;-66
2021/03/29 12:06:17;;;;;;;;;;;18.70;54.40;;;;;;5023192;28;19928;-67
2021/03/29 12:08:57;;;;;;;;;;;18.70;54.40;;;;;;5022248;28;19924;-67
2021/03/29 12:14:07;;;;;;;;;;;18.80;54.60;;;;;;5018940;28;19920;-65
2021/03/29 12:16:38;;;;;;;;;;;18.80;54.60;;;;;;5022312;28;19917;-67
2021/03/29 12:19:04;;;;;;;;;;;18.80;54.60;;;;;;5022961;28;19924;-66
2021/03/29 12:21:30;;;;;;;;;;;18.70;54.60;;;;;;5023522;28;19913;-66
2021/03/29 12:23:57;;;;;;;;;;;18.80;54.70;;;;;;5021612;28;20586;-65
2021/03/29 12:26:23;;;;;;;;;;;18.70;54.70;;;;;;5022899;28;19917;-66
2021/03/29 12:28:49;;;;;;;;;;;18.70;54.60;;;;;;5024369;28;19951;-64
2021/03/29 12:31:14;;;;;;;;;;;18.70;54.70;;;;;;5026824;28;19928;-64
2021/03/29 12:33:40;;;;;;;;;;;18.80;54.80;;;;;;5025321;28;20268;-65
2021/03/29 12:36:06;;;;;;;;;;;18.80;54.90;;;;;;5024353;28;19951;-66
2021/03/29 12:38:34;;;;;;;;;;;18.80;55.00;;;;;;5025694;28;19913;-66
2021/03/29 12:41:03;;;;;;;;;;;18.80;54.80;;;;;;5024819;28;19913;-67
2021/03/29 12:46:03;;;;;;;;;;;18.80;54.90;;;;;;5025494;28;20492;-67
2021/03/29 12:48:29;;;;;;;;;;;18.80;54.90;;;;;;5025990;28;19917;-66
2021/03/29 12:50:54;;;;;;;;;;;18.80;54.70;;;;;;5026758;28;20004;-65
2021/03/29 12:53:22;;;;;;;;;;;18.80;55.00;;;;;;5025379;28;19913;-66
2021/03/29 12:55:48;;;;;;;;;;;18.80;54.80;;;;;;5026484;28;20013;-67
2021/03/29 12:58:13;;;;;;;;;;;18.80;54.70;;;;;;5026129;28;20008;-65
2021/03/29 13:00:38;;;;;;;;;;;18.80;55.00;;;;;;5026340;28;19921;-67
2021/03/29 13:03:04;;;;;;;;;;;18.80;54.90;;;;;;5026223;28;20864;-67
2021/03/29 13:05:44;;;;;;;;;;;18.90;55.00;;;;;;5025276;28;19913;-65
2021/03/29 13:08:15;;;;;;;;;;;18.90;55.20;;;;;;5025683;28;19913;-65
2021/03/29 13:13:31;;;;;;;;;;;18.80;55.20;;;;;;5025850;28;20498;-67
2021/03/29 13:15:57;;;;;;;;;;;18.80;55.30;;;;;;5025200;28;19935;-67
2021/03/29 13:18:22;;;;;;;;;;;18.80;55.80;;;;;;5025843;28;19917;-67
2021/03/29 13:20:48;;;;;;;;;;;18.80;55.60;;;;;;5025877;28;20287;-65
2021/03/29 13:23:13;;;;;;;;;;;18.80;55.60;;;;;;5026244;28;19917;-67
2021/03/29 13:25:39;;;;;;;;;;;18.80;55.60;;;;;;5024787;28;19920;-66
2021/03/29 13:28:04;;;;;;;;;;;18.90;55.70;;;;;;5024155;28;19913;-64
2021/03/29 13:30:30;;;;;;;;;;;18.90;56.40;;;;;;5015067;28;20277;-64
2021/03/29 13:32:56;;;;;;;;;;;18.90;55.30;;;;;;5025519;28;19955;-67
2021/03/29 13:35:22;;;;;;;;;;;18.80;55.60;;;;;;5028103;28;19991;-65
2021/03/29 13:37:47;;;;;;;;;;;18.80;55.80;;;;;;5018463;28;20563;-66
2021/03/29 13:40:15;;;;;;;;;;;18.80;55.60;;;;;;5025143;28;19921;-67
2021/03/29 13:42:43;;;;;;;;;;;18.80;55.50;;;;;;5025076;28;19913;-66
2021/03/29 13:45:09;;;;;;;;;;;18.90;55.80;;;;;;5025575;28;20003;-67
2021/03/29 13:47:35;;;;;;;;;;;18.80;55.50;;;;;;5024928;28;19928;-67
2021/03/29 13:50:00;;;;;;;;;;;18.90;55.60;;;;;;5025960;28;19913;-67
2021/03/29 13:52:26;;;;;;;;;;;18.90;55.80;;;;;;5023673;28;19924;-66
2021/03/29 13:54:51;;;;;;;;;;;18.90;55.70;;;;;;5025480;28;19966;-67
2021/03/29 13:57:16;;;;;;;;;;;18.90;55.60;;;;;;5024877;28;20277;-67
2021/03/29 13:59:42;;;;;;;;;;;18.90;56.00;;;;;;5025422;28;19913;-67
2021/03/29 14:02:08;;;;;;;;;;;18.90;55.80;;;;;;5025256;28;19913;-67
2021/03/29 14:04:34;;;;;;;;;;;18.90;55.90;;;;;;5025553;28;19917;-67
2021/03/29 14:06:59;;;;;;;;;;;18.90;55.90;;;;;;5023188;28;19931;-67
2021/03/29 14:09:25;;;;;;;;;;;18.90;56.00;;;;;;5024186;28;19913;-67
2021/03/29 14:11:51;;;;;;;;;;;18.90;56.40;;;;;;5025175;28;20264;-66
2021/03/29 14:14:18;;;;;;;;;;;18.90;56.20;;;;;;5023876;28;19925;-67
2021/03/29 14:16:44;;;;;;;;;;;18.90;56.40;;;;;;5025027;28;19995;-67
2021/03/29 14:19:10;;;;;;;;;;;18.90;56.30;;;;;;5025030;28;20432;-67
2021/03/29 14:21:35;;;;;;;;;;;19.00;56.40;;;;;;5025379;28;20065;-67
2021/03/29 14:24:00;;;;;;;;;;;19.00;56.50;;;;;;5024887;28;19960;-67
2021/03/29 14:26:26;;;;;;;;;;;18.90;56.10;;;;;;5024046;28;20597;-67